sensor_id;sensor_type;location;lat;lon;timestamp;temperature;humidity
63317;DHT22;49822;41.468;13.560;2023-07-28T00:01:31;22.10;83.90
63317;DHT22;49822;41.468;13.560;2023-07-28T00:07:18;21.50;85.40
63317;DHT22;49822;41.468;13.560;2023-07-28T00:09:44;21.50;85.60
63317;DHT22;49822;41.468;13.560;2023-07-28T00:12:09;21.60;85.00
63317;DHT22;49822;41.468;13.560;2023-07-28T00:14:36;21.80;84.90
63317;DHT22;49822;41.468;13.560;2023-07-28T00:17:02;21.90;84.60
63317;DHT22;49822;41.468;13.560;2023-07-28T00:19:28;22.00;84.00
63317;DHT22;49822;41.468;13.560;2023-07-28T00:21:53;21.80;84.50
63317;DHT22;49822;41.468;13.560;2023-07-28T00:24:21;21.80;84.50
63317;DHT22;49822;41.468;13.560;2023-07-28T00:29:56;21.60;84.20
63317;DHT22;49822;41.468;13.560;2023-07-28T00:32:23;21.70;83.90
63317;DHT22;49822;41.468;13.560;2023-07-28T00:38:11;21.60;83.70
63317;DHT22;49822;41.468;13.560;2023-07-28T00:40:38;21.50;84.10
63317;DHT22;49822;41.468;13.560;2023-07-28T00:43:05;21.40;84.40
63317;DHT22;49822;41.468;13.560;2023-07-28T00:45:33;21.40;84.50
63317;DHT22;49822;41.468;13.560;2023-07-28T00:48:01;21.40;84.90
63317;DHT22;49822;41.468;13.560;2023-07-28T00:50:27;21.40;84.50
63317;DHT22;49822;41.468;13.560;2023-07-28T00:52:55;21.00;85.00
63317;DHT22;49822;41.468;13.560;2023-07-28T00:55:22;20.60;86.30
63317;DHT22;49822;41.468;13.560;2023-07-28T00:57:48;20.70;86.60
63317;DHT22;49822;41.468;13.560;2023-07-28T01:00:16;20.80;86.60
63317;DHT22;49822;41.468;13.560;2023-07-28T01:02:42;21.00;85.50
63317;DHT22;49822;41.468;13.560;2023-07-28T01:05:08;21.00;84.70
63317;DHT22;49822;41.468;13.560;2023-07-28T01:08:01;20.90;85.20
63317;DHT22;49822;41.468;13.560;2023-07-28T01:10:31;20.90;84.70
63317;DHT22;49822;41.468;13.560;2023-07-28T01:13:00;20.70;85.60
63317;DHT22;49822;41.468;13.560;2023-07-28T01:15:27;20.80;85.60
63317;DHT22;49822;41.468;13.560;2023-07-28T01:17:54;20.80;85.90
63317;DHT22;49822;41.468;13.560;2023-07-28T01:20:22;20.90;84.80
63317;DHT22;49822;41.468;13.560;2023-07-28T01:23:09;20.90;84.30
63317;DHT22;49822;41.468;13.560;2023-07-28T01:28:27;20.90;84.60
63317;DHT22;49822;41.468;13.560;2023-07-28T01:30:54;20.60;85.80
63317;DHT22;49822;41.468;13.560;2023-07-28T01:33:20;20.60;86.10
63317;DHT22;49822;41.468;13.560;2023-07-28T01:35:46;20.60;86.30
63317;DHT22;49822;41.468;13.560;2023-07-28T01:38:12;20.60;86.30
63317;DHT22;49822;41.468;13.560;2023-07-28T01:40:38;20.50;86.10
63317;DHT22;49822;41.468;13.560;2023-07-28T01:43:06;20.40;86.80
63317;DHT22;49822;41.468;13.560;2023-07-28T01:45:33;20.60;86.40
63317;DHT22;49822;41.468;13.560;2023-07-28T01:48:01;20.50;86.10
63317;DHT22;49822;41.468;13.560;2023-07-28T01:50:27;20.50;85.90
63317;DHT22;49822;41.468;13.560;2023-07-28T01:52:53;20.50;86.30
63317;DHT22;49822;41.468;13.560;2023-07-28T01:55:19;20.40;85.80
63317;DHT22;49822;41.468;13.560;2023-07-28T01:57:58;20.50;86.00
63317;DHT22;49822;41.468;13.560;2023-07-28T02:00:26;20.30;86.50
63317;DHT22;49822;41.468;13.560;2023-07-28T02:02:54;20.50;86.00
63317;DHT22;49822;41.468;13.560;2023-07-28T02:05:21;20.50;85.80
63317;DHT22;49822;41.468;13.560;2023-07-28T02:07:47;20.70;85.30
63317;DHT22;49822;41.468;13.560;2023-07-28T02:10:13;20.70;85.10
63317;DHT22;49822;41.468;13.560;2023-07-28T02:12:40;20.50;84.80
63317;DHT22;49822;41.468;13.560;2023-07-28T02:15:07;20.40;85.20
63317;DHT22;49822;41.468;13.560;2023-07-28T02:17:33;20.20;86.00
63317;DHT22;49822;41.468;13.560;2023-07-28T02:19:59;20.10;86.10
63317;DHT22;49822;41.468;13.560;2023-07-28T02:22:27;19.80;86.60
63317;DHT22;49822;41.468;13.560;2023-07-28T02:24:53;19.80;87.10
63317;DHT22;49822;41.468;13.560;2023-07-28T02:27:19;19.90;86.80
63317;DHT22;49822;41.468;13.560;2023-07-28T02:29:47;20.00;86.60
63317;DHT22;49822;41.468;13.560;2023-07-28T02:32:13;20.10;86.00
63317;DHT22;49822;41.468;13.560;2023-07-28T02:34:40;20.20;85.80
63317;DHT22;49822;41.468;13.560;2023-07-28T02:37:06;19.90;86.50
63317;DHT22;49822;41.468;13.560;2023-07-28T02:39:32;19.90;86.50
63317;DHT22;49822;41.468;13.560;2023-07-28T02:41:58;20.00;86.30
63317;DHT22;49822;41.468;13.560;2023-07-28T02:44:24;20.10;86.10
63317;DHT22;49822;41.468;13.560;2023-07-28T02:46:51;20.00;86.20
63317;DHT22;49822;41.468;13.560;2023-07-28T02:49:17;20.10;86.10
63317;DHT22;49822;41.468;13.560;2023-07-28T02:51:43;20.00;86.10
63317;DHT22;49822;41.468;13.560;2023-07-28T02:54:10;20.00;85.90
63317;DHT22;49822;41.468;13.560;2023-07-28T02:56:36;19.80;86.60
63317;DHT22;49822;41.468;13.560;2023-07-28T02:59:07;19.90;86.30
63317;DHT22;49822;41.468;13.560;2023-07-28T03:01:33;19.90;86.40
63317;DHT22;49822;41.468;13.560;2023-07-28T03:04:02;19.90;86.10
63317;DHT22;49822;41.468;13.560;2023-07-28T03:06:35;19.90;86.00
63317;DHT22;49822;41.468;13.560;2023-07-28T03:09:01;19.70;86.30
63317;DHT22;49822;41.468;13.560;2023-07-28T03:11:46;19.60;86.90
63317;DHT22;49822;41.468;13.560;2023-07-28T03:14:15;19.70;86.70
63317;DHT22;49822;41.468;13.560;2023-07-28T03:16:42;19.80;86.30
63317;DHT22;49822;41.468;13.560;2023-07-28T03:19:08;19.60;86.50
63317;DHT22;49822;41.468;13.560;2023-07-28T03:21:34;19.60;86.70
63317;DHT22;49822;41.468;13.560;2023-07-28T03:24:00;19.70;86.80
63317;DHT22;49822;41.468;13.560;2023-07-28T03:26:26;19.80;86.50
63317;DHT22;49822;41.468;13.560;2023-07-28T03:28:53;19.80;86.20
63317;DHT22;49822;41.468;13.560;2023-07-28T03:31:19;19.70;86.50
63317;DHT22;49822;41.468;13.560;2023-07-28T03:33:46;19.80;86.70
63317;DHT22;49822;41.468;13.560;2023-07-28T03:36:12;19.90;86.20
63317;DHT22;49822;41.468;13.560;2023-07-28T03:38:38;19.80;86.30
63317;DHT22;49822;41.468;13.560;2023-07-28T03:41:06;19.80;86.10
63317;DHT22;49822;41.468;13.560;2023-07-28T03:43:33;19.80;86.60
63317;DHT22;49822;41.468;13.560;2023-07-28T03:45:59;19.90;86.30
63317;DHT22;49822;41.468;13.560;2023-07-28T03:48:25;19.80;85.80
63317;DHT22;49822;41.468;13.560;2023-07-28T03:50:51;19.80;86.20
63317;DHT22;49822;41.468;13.560;2023-07-28T03:53:17;19.60;86.20
63317;DHT22;49822;41.468;13.560;2023-07-28T03:55:43;19.30;86.90
63317;DHT22;49822;41.468;13.560;2023-07-28T03:58:09;19.00;88.70
63317;DHT22;49822;41.468;13.560;2023-07-28T04:00:36;19.20;88.70
63317;DHT22;49822;41.468;13.560;2023-07-28T04:03:03;19.30;87.90
63317;DHT22;49822;41.468;13.560;2023-07-28T04:05:29;19.40;87.50
63317;DHT22;49822;41.468;13.560;2023-07-28T04:07:55;19.50;87.10
63317;DHT22;49822;41.468;13.560;2023-07-28T04:10:21;19.50;85.90
63317;DHT22;49822;41.468;13.560;2023-07-28T04:12:47;18.70;88.70
63317;DHT22;49822;41.468;13.560;2023-07-28T04:15:13;18.60;90.20
63317;DHT22;49822;41.468;13.560;2023-07-28T04:17:39;18.90;89.40
63317;DHT22;49822;41.468;13.560;2023-07-28T04:20:07;19.20;89.00
63317;DHT22;49822;41.468;13.560;2023-07-28T04:22:33;19.30;88.20
63317;DHT22;49822;41.468;13.560;2023-07-28T04:24:59;19.50;87.20
63317;DHT22;49822;41.468;13.560;2023-07-28T04:27:25;19.50;86.90
63317;DHT22;49822;41.468;13.560;2023-07-28T04:29:56;19.70;86.50
63317;DHT22;49822;41.468;13.560;2023-07-28T04:32:24;19.70;87.10
63317;DHT22;49822;41.468;13.560;2023-07-28T04:34:53;19.80;87.10
63317;DHT22;49822;41.468;13.560;2023-07-28T04:37:45;20.00;86.60
63317;DHT22;49822;41.468;13.560;2023-07-28T04:40:15;19.90;86.70
63317;DHT22;49822;41.468;13.560;2023-07-28T04:42:41;20.10;86.30
63317;DHT22;49822;41.468;13.560;2023-07-28T04:45:08;20.10;86.10
63317;DHT22;49822;41.468;13.560;2023-07-28T04:47:35;20.20;86.30
63317;DHT22;49822;41.468;13.560;2023-07-28T04:50:01;20.20;86.00
63317;DHT22;49822;41.468;13.560;2023-07-28T04:52:46;20.40;86.10
63317;DHT22;49822;41.468;13.560;2023-07-28T04:55:30;20.50;85.70
63317;DHT22;49822;41.468;13.560;2023-07-28T04:57:56;20.60;85.40
63317;DHT22;49822;41.468;13.560;2023-07-28T05:00:27;20.60;85.40
63317;DHT22;49822;41.468;13.560;2023-07-28T05:02:53;20.70;85.60
63317;DHT22;49822;41.468;13.560;2023-07-28T05:05:20;20.80;85.60
63317;DHT22;49822;41.468;13.560;2023-07-28T05:07:46;20.90;84.60
63317;DHT22;49822;41.468;13.560;2023-07-28T05:10:15;21.00;84.30
63317;DHT22;49822;41.468;13.560;2023-07-28T05:12:41;21.10;84.30
63317;DHT22;49822;41.468;13.560;2023-07-28T05:15:10;21.20;84.00
63317;DHT22;49822;41.468;13.560;2023-07-28T05:17:38;21.30;83.80
63317;DHT22;49822;41.468;13.560;2023-07-28T05:20:37;21.40;83.50
63317;DHT22;49822;41.468;13.560;2023-07-28T05:23:21;21.50;83.70
63317;DHT22;49822;41.468;13.560;2023-07-28T05:25:47;21.60;83.90
63317;DHT22;49822;41.468;13.560;2023-07-28T05:28:13;21.70;83.60
63317;DHT22;49822;41.468;13.560;2023-07-28T05:30:43;21.80;83.60
63317;DHT22;49822;41.468;13.560;2023-07-28T05:33:12;21.90;83.60
63317;DHT22;49822;41.468;13.560;2023-07-28T05:35:48;22.00;83.20
63317;DHT22;49822;41.468;13.560;2023-07-28T05:38:14;22.10;83.30
63317;DHT22;49822;41.468;13.560;2023-07-28T05:40:40;22.10;83.00
63317;DHT22;49822;41.468;13.560;2023-07-28T05:43:07;22.20;83.50
63317;DHT22;49822;41.468;13.560;2023-07-28T05:45:35;22.30;82.90
63317;DHT22;49822;41.468;13.560;2023-07-28T05:48:04;22.30;83.20
63317;DHT22;49822;41.468;13.560;2023-07-28T05:50:31;22.30;82.90
63317;DHT22;49822;41.468;13.560;2023-07-28T05:52:57;22.20;83.00
63317;DHT22;49822;41.468;13.560;2023-07-28T05:55:24;22.20;83.10
63317;DHT22;49822;41.468;13.560;2023-07-28T05:57:50;22.20;83.30
63317;DHT22;49822;41.468;13.560;2023-07-28T06:00:17;22.50;82.50
63317;DHT22;49822;41.468;13.560;2023-07-28T06:02:43;22.50;82.50
63317;DHT22;49822;41.468;13.560;2023-07-28T06:05:20;22.60;83.00
63317;DHT22;49822;41.468;13.560;2023-07-28T06:07:46;22.70;82.80
63317;DHT22;49822;41.468;13.560;2023-07-28T06:10:15;22.70;82.90
63317;DHT22;49822;41.468;13.560;2023-07-28T06:12:41;22.70;83.00
63317;DHT22;49822;41.468;13.560;2023-07-28T06:15:12;22.80;82.10
63317;DHT22;49822;41.468;13.560;2023-07-28T06:17:41;23.10;81.80
63317;DHT22;49822;41.468;13.560;2023-07-28T06:20:13;23.10;81.70
63317;DHT22;49822;41.468;13.560;2023-07-28T06:22:41;23.30;81.50
63317;DHT22;49822;41.468;13.560;2023-07-28T06:25:11;23.50;81.30
63317;DHT22;49822;41.468;13.560;2023-07-28T06:27:38;23.50;81.60
63317;DHT22;49822;41.468;13.560;2023-07-28T06:30:08;23.60;81.80
63317;DHT22;49822;41.468;13.560;2023-07-28T06:32:37;23.70;80.40
63317;DHT22;49822;41.468;13.560;2023-07-28T06:35:05;23.80;80.00
63317;DHT22;49822;41.468;13.560;2023-07-28T06:37:38;23.90;79.60
63317;DHT22;49822;41.468;13.560;2023-07-28T06:40:08;24.00;79.60
63317;DHT22;49822;41.468;13.560;2023-07-28T06:42:40;24.10;79.30
63317;DHT22;49822;41.468;13.560;2023-07-28T06:45:10;24.20;79.00
63317;DHT22;49822;41.468;13.560;2023-07-28T06:47:38;24.20;79.00
63317;DHT22;49822;41.468;13.560;2023-07-28T06:50:10;24.30;79.10
63317;DHT22;49822;41.468;13.560;2023-07-28T06:52:39;24.30;78.80
63317;DHT22;49822;41.468;13.560;2023-07-28T06:55:09;24.20;79.10
63317;DHT22;49822;41.468;13.560;2023-07-28T06:57:38;24.30;78.50
63317;DHT22;49822;41.468;13.560;2023-07-28T07:00:08;24.30;78.80
63317;DHT22;49822;41.468;13.560;2023-07-28T07:02:39;24.50;78.70
63317;DHT22;49822;41.468;13.560;2023-07-28T07:05:09;24.60;78.30
63317;DHT22;49822;41.468;13.560;2023-07-28T07:07:40;24.60;78.40
63317;DHT22;49822;41.468;13.560;2023-07-28T07:10:09;24.60;78.10
63317;DHT22;49822;41.468;13.560;2023-07-28T07:12:38;24.70;78.30
63317;DHT22;49822;41.468;13.560;2023-07-28T07:15:09;24.90;78.00
63317;DHT22;49822;41.468;13.560;2023-07-28T07:17:39;24.90;77.90
63317;DHT22;49822;41.468;13.560;2023-07-28T07:20:10;25.20;77.90
63317;DHT22;49822;41.468;13.560;2023-07-28T07:22:39;25.30;77.60
63317;DHT22;49822;41.468;13.560;2023-07-28T07:25:10;25.40;77.20
63317;DHT22;49822;41.468;13.560;2023-07-28T07:27:38;25.50;77.20
63317;DHT22;49822;41.468;13.560;2023-07-28T07:30:09;25.60;77.00
63317;DHT22;49822;41.468;13.560;2023-07-28T07:32:40;25.70;77.20
63317;DHT22;49822;41.468;13.560;2023-07-28T07:35:11;25.80;76.70
63317;DHT22;49822;41.468;13.560;2023-07-28T07:37:41;25.90;76.00
63317;DHT22;49822;41.468;13.560;2023-07-28T07:40:11;25.90;76.40
63317;DHT22;49822;41.468;13.560;2023-07-28T07:42:43;26.10;76.40
63317;DHT22;49822;41.468;13.560;2023-07-28T07:45:14;26.20;76.00
63317;DHT22;49822;41.468;13.560;2023-07-28T07:47:42;26.30;75.80
63317;DHT22;49822;41.468;13.560;2023-07-28T07:50:12;26.50;75.00
63317;DHT22;49822;41.468;13.560;2023-07-28T07:52:40;26.50;74.70
63317;DHT22;49822;41.468;13.560;2023-07-28T07:55:11;26.60;74.30
63317;DHT22;49822;41.468;13.560;2023-07-28T07:57:40;26.70;75.00
63317;DHT22;49822;41.468;13.560;2023-07-28T08:00:11;26.80;74.50
63317;DHT22;49822;41.468;13.560;2023-07-28T08:02:38;26.90;74.20
63317;DHT22;49822;41.468;13.560;2023-07-28T08:05:08;27.00;74.00
63317;DHT22;49822;41.468;13.560;2023-07-28T08:07:38;27.10;73.40
63317;DHT22;49822;41.468;13.560;2023-07-28T08:10:05;27.20;73.00
63317;DHT22;49822;41.468;13.560;2023-07-28T08:12:35;27.30;72.70
63317;DHT22;49822;41.468;13.560;2023-07-28T08:15:01;27.40;72.70
63317;DHT22;49822;41.468;13.560;2023-07-28T08:17:28;27.40;71.80
63317;DHT22;49822;41.468;13.560;2023-07-28T08:19:54;27.40;72.10
63317;DHT22;49822;41.468;13.560;2023-07-28T08:22:20;27.50;73.10
63317;DHT22;49822;41.468;13.560;2023-07-28T08:24:47;27.60;71.60
63317;DHT22;49822;41.468;13.560;2023-07-28T08:27:14;27.70;71.20
63317;DHT22;49822;41.468;13.560;2023-07-28T08:29:40;27.80;70.70
63317;DHT22;49822;41.468;13.560;2023-07-28T08:32:07;27.90;70.00
63317;DHT22;49822;41.468;13.560;2023-07-28T08:34:34;27.90;70.10
63317;DHT22;49822;41.468;13.560;2023-07-28T08:37:00;27.60;70.80
63317;DHT22;49822;41.468;13.560;2023-07-28T08:39:27;27.80;70.80
63317;DHT22;49822;41.468;13.560;2023-07-28T08:42:00;27.90;70.10
63317;DHT22;49822;41.468;13.560;2023-07-28T08:44:33;28.10;69.20
63317;DHT22;49822;41.468;13.560;2023-07-28T08:47:04;28.20;68.90
63317;DHT22;49822;41.468;13.560;2023-07-28T08:49:31;28.40;68.10
63317;DHT22;49822;41.468;13.560;2023-07-28T08:51:59;28.50;66.80
63317;DHT22;49822;41.468;13.560;2023-07-28T08:54:27;28.40;67.90
63317;DHT22;49822;41.468;13.560;2023-07-28T08:56:53;28.40;65.90
63317;DHT22;49822;41.468;13.560;2023-07-28T08:59:28;28.50;67.40
63317;DHT22;49822;41.468;13.560;2023-07-28T09:01:57;28.60;67.20
63317;DHT22;49822;41.468;13.560;2023-07-28T09:04:25;28.80;66.10
63317;DHT22;49822;41.468;13.560;2023-07-28T09:06:53;28.90;67.30
63317;DHT22;49822;41.468;13.560;2023-07-28T09:09:23;29.00;66.30
63317;DHT22;49822;41.468;13.560;2023-07-28T09:11:51;29.00;65.80
63317;DHT22;49822;41.468;13.560;2023-07-28T09:14:19;29.10;64.30
63317;DHT22;49822;41.468;13.560;2023-07-28T09:16:46;29.10;64.70
63317;DHT22;49822;41.468;13.560;2023-07-28T09:19:13;29.40;64.10
63317;DHT22;49822;41.468;13.560;2023-07-28T09:21:42;29.40;64.30
63317;DHT22;49822;41.468;13.560;2023-07-28T09:24:12;29.50;62.90
63317;DHT22;49822;41.468;13.560;2023-07-28T09:26:47;29.60;62.30
63317;DHT22;49822;41.468;13.560;2023-07-28T09:29:19;29.60;63.20
63317;DHT22;49822;41.468;13.560;2023-07-28T09:31:47;29.60;64.00
63317;DHT22;49822;41.468;13.560;2023-07-28T09:34:24;29.70;63.30
63317;DHT22;49822;41.468;13.560;2023-07-28T09:36:56;29.90;62.70
63317;DHT22;49822;41.468;13.560;2023-07-28T09:39:23;29.90;61.60
63317;DHT22;49822;41.468;13.560;2023-07-28T09:41:49;30.00;61.10
63317;DHT22;49822;41.468;13.560;2023-07-28T09:44:16;30.00;61.70
63317;DHT22;49822;41.468;13.560;2023-07-28T09:46:55;30.10;62.00
63317;DHT22;49822;41.468;13.560;2023-07-28T09:49:29;30.20;61.20
63317;DHT22;49822;41.468;13.560;2023-07-28T09:52:08;30.10;60.10
63317;DHT22;49822;41.468;13.560;2023-07-28T09:54:39;30.10;60.80
63317;DHT22;49822;41.468;13.560;2023-07-28T09:57:11;30.10;61.40
63317;DHT22;49822;41.468;13.560;2023-07-28T09:59:39;30.10;60.90
63317;DHT22;49822;41.468;13.560;2023-07-28T10:02:07;30.00;59.70
63317;DHT22;49822;41.468;13.560;2023-07-28T10:04:34;30.00;60.30
63317;DHT22;49822;41.468;13.560;2023-07-28T10:07:01;30.10;61.20
63317;DHT22;49822;41.468;13.560;2023-07-28T10:09:29;30.20;60.90
63317;DHT22;49822;41.468;13.560;2023-07-28T10:11:56;30.50;60.80
63317;DHT22;49822;41.468;13.560;2023-07-28T10:14:51;30.70;61.20
63317;DHT22;49822;41.468;13.560;2023-07-28T10:17:31;30.70;58.20
63317;DHT22;49822;41.468;13.560;2023-07-28T10:19:58;30.60;58.90
63317;DHT22;49822;41.468;13.560;2023-07-28T10:22:26;30.70;58.10
63317;DHT22;49822;41.468;13.560;2023-07-28T10:27:38;31.20;56.30
63317;DHT22;49822;41.468;13.560;2023-07-28T10:30:10;31.20;56.40
63317;DHT22;49822;41.468;13.560;2023-07-28T10:32:42;31.60;57.70
63317;DHT22;49822;41.468;13.560;2023-07-28T10:35:27;31.80;56.90
63317;DHT22;49822;41.468;13.560;2023-07-28T10:37:54;31.60;55.60
63317;DHT22;49822;41.468;13.560;2023-07-28T10:40:27;30.90;54.50
63317;DHT22;49822;41.468;13.560;2023-07-28T10:42:54;30.60;55.00
63317;DHT22;49822;41.468;13.560;2023-07-28T10:45:24;30.80;54.30
63317;DHT22;49822;41.468;13.560;2023-07-28T10:47:54;31.00;55.90
63317;DHT22;49822;41.468;13.560;2023-07-28T10:50:28;31.20;53.70
63317;DHT22;49822;41.468;13.560;2023-07-28T10:52:54;31.70;54.80
63317;DHT22;49822;41.468;13.560;2023-07-28T10:55:24;31.80;55.40
63317;DHT22;49822;41.468;13.560;2023-07-28T10:57:53;31.80;57.40
63317;DHT22;49822;41.468;13.560;2023-07-28T11:00:23;31.70;58.30
63317;DHT22;49822;41.468;13.560;2023-07-28T11:02:54;31.90;55.40
63317;DHT22;49822;41.468;13.560;2023-07-28T11:05:28;31.90;54.60
63317;DHT22;49822;41.468;13.560;2023-07-28T11:07:58;31.50;57.90
63317;DHT22;49822;41.468;13.560;2023-07-28T11:10:25;31.40;56.70
63317;DHT22;49822;41.468;13.560;2023-07-28T11:13:06;31.60;56.40
63317;DHT22;49822;41.468;13.560;2023-07-28T11:15:35;31.40;57.00
63317;DHT22;49822;41.468;13.560;2023-07-28T11:18:03;31.40;58.90
63317;DHT22;49822;41.468;13.560;2023-07-28T11:20:31;31.00;58.80
63317;DHT22;49822;41.468;13.560;2023-07-28T11:22:59;30.70;59.30
63317;DHT22;49822;41.468;13.560;2023-07-28T11:25:28;30.50;60.60
63317;DHT22;49822;41.468;13.560;2023-07-28T11:27:56;30.40;59.90
63317;DHT22;49822;41.468;13.560;2023-07-28T11:30:24;30.40;60.40
63317;DHT22;49822;41.468;13.560;2023-07-28T11:32:53;30.40;61.10
63317;DHT22;49822;41.468;13.560;2023-07-28T11:35:21;30.60;61.20
63317;DHT22;49822;41.468;13.560;2023-07-28T11:37:50;30.40;60.40
63317;DHT22;49822;41.468;13.560;2023-07-28T11:40:19;29.80;60.70
63317;DHT22;49822;41.468;13.560;2023-07-28T11:42:54;30.00;61.20
63317;DHT22;49822;41.468;13.560;2023-07-28T11:45:23;29.90;62.50
63317;DHT22;49822;41.468;13.560;2023-07-28T11:47:56;29.80;61.60
63317;DHT22;49822;41.468;13.560;2023-07-28T11:50:27;29.70;61.30
63317;DHT22;49822;41.468;13.560;2023-07-28T11:52:55;29.60;62.10
63317;DHT22;49822;41.468;13.560;2023-07-28T11:55:23;29.60;61.70
63317;DHT22;49822;41.468;13.560;2023-07-28T11:57:51;29.50;62.00
63317;DHT22;49822;41.468;13.560;2023-07-28T12:00:18;29.50;63.00
63317;DHT22;49822;41.468;13.560;2023-07-28T12:03:11;29.30;62.50
63317;DHT22;49822;41.468;13.560;2023-07-28T12:05:39;29.00;63.60
63317;DHT22;49822;41.468;13.560;2023-07-28T12:08:06;29.00;65.00
63317;DHT22;49822;41.468;13.560;2023-07-28T12:10:34;29.00;65.60
63317;DHT22;49822;41.468;13.560;2023-07-28T12:13:09;29.20;63.60
63317;DHT22;49822;41.468;13.560;2023-07-28T12:15:40;28.90;65.10
63317;DHT22;49822;41.468;13.560;2023-07-28T12:18:11;28.80;65.50
63317;DHT22;49822;41.468;13.560;2023-07-28T12:20:43;29.00;65.30
63317;DHT22;49822;41.468;13.560;2023-07-28T12:23:17;29.00;64.60
63317;DHT22;49822;41.468;13.560;2023-07-28T12:25:44;29.60;64.20
63317;DHT22;49822;41.468;13.560;2023-07-28T12:28:10;29.70;63.40
63317;DHT22;49822;41.468;13.560;2023-07-28T12:30:39;29.60;62.80
63317;DHT22;49822;41.468;13.560;2023-07-28T12:33:06;29.70;63.50
63317;DHT22;49822;41.468;13.560;2023-07-28T12:35:33;29.70;62.40
63317;DHT22;49822;41.468;13.560;2023-07-28T12:38:03;29.60;62.90
63317;DHT22;49822;41.468;13.560;2023-07-28T12:40:32;29.80;62.90
63317;DHT22;49822;41.468;13.560;2023-07-28T12:42:59;30.10;62.10
63317;DHT22;49822;41.468;13.560;2023-07-28T12:45:26;30.00;62.10
63317;DHT22;49822;41.468;13.560;2023-07-28T12:47:53;30.00;62.30
63317;DHT22;49822;41.468;13.560;2023-07-28T12:50:21;30.00;62.80
63317;DHT22;49822;41.468;13.560;2023-07-28T12:52:48;30.10;62.60
63317;DHT22;49822;41.468;13.560;2023-07-28T12:55:15;30.20;61.60
63317;DHT22;49822;41.468;13.560;2023-07-28T12:57:42;30.00;61.70
63317;DHT22;49822;41.468;13.560;2023-07-28T13:00:08;29.90;62.20
63317;DHT22;49822;41.468;13.560;2023-07-28T13:02:43;29.60;62.30
63317;DHT22;49822;41.468;13.560;2023-07-28T13:05:11;29.70;62.40
63317;DHT22;49822;41.468;13.560;2023-07-28T13:07:38;29.50;62.60
63317;DHT22;49822;41.468;13.560;2023-07-28T13:10:09;29.60;63.00
63317;DHT22;49822;41.468;13.560;2023-07-28T13:12:36;29.70;62.10
63317;DHT22;49822;41.468;13.560;2023-07-28T13:15:04;29.60;62.20
63317;DHT22;49822;41.468;13.560;2023-07-28T13:17:31;29.70;61.60
63317;DHT22;49822;41.468;13.560;2023-07-28T13:19:57;29.90;62.00
63317;DHT22;49822;41.468;13.560;2023-07-28T13:22:24;30.00;61.30
63317;DHT22;49822;41.468;13.560;2023-07-28T13:24:52;30.00;60.90
63317;DHT22;49822;41.468;13.560;2023-07-28T13:27:18;30.10;60.80
63317;DHT22;49822;41.468;13.560;2023-07-28T13:29:44;30.10;61.70
63317;DHT22;49822;41.468;13.560;2023-07-28T13:32:24;30.20;62.00
63317;DHT22;49822;41.468;13.560;2023-07-28T13:34:51;30.40;60.20
63317;DHT22;49822;41.468;13.560;2023-07-28T13:37:18;30.40;60.60
63317;DHT22;49822;41.468;13.560;2023-07-28T13:39:45;30.60;62.10
63317;DHT22;49822;41.468;13.560;2023-07-28T13:42:11;30.40;60.70
63317;DHT22;49822;41.468;13.560;2023-07-28T13:44:39;30.30;61.10
63317;DHT22;49822;41.468;13.560;2023-07-28T13:47:05;30.10;60.90
63317;DHT22;49822;41.468;13.560;2023-07-28T13:49:31;30.30;61.80
63317;DHT22;49822;41.468;13.560;2023-07-28T13:52:02;30.50;61.70
63317;DHT22;49822;41.468;13.560;2023-07-28T13:54:29;30.50;61.10
63317;DHT22;49822;41.468;13.560;2023-07-28T13:56:55;30.60;61.80
63317;DHT22;49822;41.468;13.560;2023-07-28T13:59:21;30.60;62.30
63317;DHT22;49822;41.468;13.560;2023-07-28T14:01:48;30.80;62.80
63317;DHT22;49822;41.468;13.560;2023-07-28T14:04:15;30.80;62.10
63317;DHT22;49822;41.468;13.560;2023-07-28T14:06:41;30.90;62.30
63317;DHT22;49822;41.468;13.560;2023-07-28T14:09:07;30.80;61.50
63317;DHT22;49822;41.468;13.560;2023-07-28T14:11:33;30.70;62.20
63317;DHT22;49822;41.468;13.560;2023-07-28T14:13:59;30.60;62.00
63317;DHT22;49822;41.468;13.560;2023-07-28T14:16:26;30.60;62.50
63317;DHT22;49822;41.468;13.560;2023-07-28T14:18:52;30.50;62.80
63317;DHT22;49822;41.468;13.560;2023-07-28T14:21:18;30.60;61.80
63317;DHT22;49822;41.468;13.560;2023-07-28T14:23:45;30.60;61.90
63317;DHT22;49822;41.468;13.560;2023-07-28T14:26:11;30.30;61.50
63317;DHT22;49822;41.468;13.560;2023-07-28T14:28:37;30.30;61.20
63317;DHT22;49822;41.468;13.560;2023-07-28T14:31:03;30.20;60.60
63317;DHT22;49822;41.468;13.560;2023-07-28T14:33:29;30.20;60.60
63317;DHT22;49822;41.468;13.560;2023-07-28T14:35:55;30.20;59.70
63317;DHT22;49822;41.468;13.560;2023-07-28T14:38:22;30.00;59.30
63317;DHT22;49822;41.468;13.560;2023-07-28T14:40:48;30.10;59.90
63317;DHT22;49822;41.468;13.560;2023-07-28T14:43:18;30.20;59.40
63317;DHT22;49822;41.468;13.560;2023-07-28T14:45:44;30.40;59.00
63317;DHT22;49822;41.468;13.560;2023-07-28T14:48:10;30.00;58.60
63317;DHT22;49822;41.468;13.560;2023-07-28T14:50:37;29.90;59.40
63317;DHT22;49822;41.468;13.560;2023-07-28T14:53:30;30.20;59.70
63317;DHT22;49822;41.468;13.560;2023-07-28T14:55:57;30.00;58.70
63317;DHT22;49822;41.468;13.560;2023-07-28T14:58:23;30.10;59.10
63317;DHT22;49822;41.468;13.560;2023-07-28T15:00:50;30.10;59.00
63317;DHT22;49822;41.468;13.560;2023-07-28T15:03:16;30.10;58.80
63317;DHT22;49822;41.468;13.560;2023-07-28T15:05:43;30.00;58.80
63317;DHT22;49822;41.468;13.560;2023-07-28T15:08:09;30.00;58.70
63317;DHT22;49822;41.468;13.560;2023-07-28T15:10:35;29.80;59.10
63317;DHT22;49822;41.468;13.560;2023-07-28T15:13:01;29.70;59.00
63317;DHT22;49822;41.468;13.560;2023-07-28T15:15:28;29.90;58.70
63317;DHT22;49822;41.468;13.560;2023-07-28T15:17:54;29.70;58.30
63317;DHT22;49822;41.468;13.560;2023-07-28T15:20:20;29.70;58.50
63317;DHT22;49822;41.468;13.560;2023-07-28T15:22:47;29.60;58.20
63317;DHT22;49822;41.468;13.560;2023-07-28T15:25:14;29.50;58.10
63317;DHT22;49822;41.468;13.560;2023-07-28T15:27:43;29.50;58.50
63317;DHT22;49822;41.468;13.560;2023-07-28T15:30:10;29.60;57.40
63317;DHT22;49822;41.468;13.560;2023-07-28T15:32:37;29.70;58.00
63317;DHT22;49822;41.468;13.560;2023-07-28T15:35:04;29.70;56.70
63317;DHT22;49822;41.468;13.560;2023-07-28T15:37:31;29.70;56.90
63317;DHT22;49822;41.468;13.560;2023-07-28T15:39:58;29.60;56.80